sensor_id;sensor_type;location;lat;lon;timestamp;temperature;humidity
55135;DHT22;41031;44.750;11.308;2022-12-29T00:00:08;10.80;98.60
55135;DHT22;41031;44.750;11.308;2022-12-29T00:02:40;10.80;98.60
55135;DHT22;41031;44.750;11.308;2022-12-29T00:05:07;10.80;98.60
55135;DHT22;41031;44.750;11.308;2022-12-29T00:07:35;10.80;98.60
55135;DHT22;41031;44.750;11.308;2022-12-29T00:10:02;10.80;98.50
55135;DHT22;41031;44.750;11.308;2022-12-29T00:12:29;10.80;98.50
55135;DHT22;41031;44.750;11.308;2022-12-29T00:15:16;10.80;98.50
55135;DHT22;41031;44.750;11.308;2022-12-29T00:18:02;10.80;98.60
55135;DHT22;41031;44.750;11.308;2022-12-29T00:20:29;10.70;98.50
55135;DHT22;41031;44.750;11.308;2022-12-29T00:23:18;10.70;98.70
55135;DHT22;41031;44.750;11.308;2022-12-29T00:26:05;10.70;98.50
55135;DHT22;41031;44.750;11.308;2022-12-29T00:28:53;10.70;98.60
55135;DHT22;41031;44.750;11.308;2022-12-29T00:31:39;10.70;98.60
55135;DHT22;41031;44.750;11.308;2022-12-29T00:34:25;10.70;98.70
55135;DHT22;41031;44.750;11.308;2022-12-29T00:37:10;10.70;98.70
55135;DHT22;41031;44.750;11.308;2022-12-29T00:39:37;10.70;98.70
55135;DHT22;41031;44.750;11.308;2022-12-29T00:42:24;10.80;98.80
55135;DHT22;41031;44.750;11.308;2022-12-29T00:45:09;10.80;98.80
55135;DHT22;41031;44.750;11.308;2022-12-29T00:47:36;10.80;98.70
55135;DHT22;41031;44.750;11.308;2022-12-29T00:50:03;10.80;98.70
55135;DHT22;41031;44.750;11.308;2022-12-29T00:52:30;10.70;98.70
55135;DHT22;41031;44.750;11.308;2022-12-29T00:54:57;10.70;98.80
55135;DHT22;41031;44.750;11.308;2022-12-29T00:57:24;10.70;98.80
55135;DHT22;41031;44.750;11.308;2022-12-29T00:59:51;10.80;98.90
55135;DHT22;41031;44.750;11.308;2022-12-29T01:02:18;10.80;98.90
55135;DHT22;41031;44.750;11.308;2022-12-29T01:04:46;10.80;98.90
55135;DHT22;41031;44.750;11.308;2022-12-29T01:07:15;10.80;98.80
55135;DHT22;41031;44.750;11.308;2022-12-29T01:09:44;10.80;98.80
55135;DHT22;41031;44.750;11.308;2022-12-29T01:12:29;10.80;98.90
55135;DHT22;41031;44.750;11.308;2022-12-29T01:15:10;10.80;98.80
55135;DHT22;41031;44.750;11.308;2022-12-29T01:17:38;10.80;98.80
55135;DHT22;41031;44.750;11.308;2022-12-29T01:20:05;10.80;98.80
55135;DHT22;41031;44.750;11.308;2022-12-29T01:22:32;10.80;98.80
55135;DHT22;41031;44.750;11.308;2022-12-29T01:24:59;10.80;98.90
55135;DHT22;41031;44.750;11.308;2022-12-29T01:27:26;10.80;98.90
55135;DHT22;41031;44.750;11.308;2022-12-29T01:29:53;10.80;98.90
55135;DHT22;41031;44.750;11.308;2022-12-29T01:32:20;10.80;98.90
55135;DHT22;41031;44.750;11.308;2022-12-29T01:34:47;10.80;98.90
55135;DHT22;41031;44.750;11.308;2022-12-29T01:37:15;10.80;98.90
55135;DHT22;41031;44.750;11.308;2022-12-29T01:39:43;10.80;98.90
55135;DHT22;41031;44.750;11.308;2022-12-29T01:42:16;10.80;98.90
55135;DHT22;41031;44.750;11.308;2022-12-29T01:47:29;10.80;98.90
55135;DHT22;41031;44.750;11.308;2022-12-29T01:50:01;10.80;98.90
55135;DHT22;41031;44.750;11.308;2022-12-29T01:52:32;10.80;98.90
55135;DHT22;41031;44.750;11.308;2022-12-29T01:55:02;10.80;98.90
55135;DHT22;41031;44.750;11.308;2022-12-29T01:57:34;10.80;98.90
55135;DHT22;41031;44.750;11.308;2022-12-29T02:00:08;10.80;98.90
55135;DHT22;41031;44.750;11.308;2022-12-29T02:02:42;10.80;98.90
55135;DHT22;41031;44.750;11.308;2022-12-29T02:05:17;10.80;98.90
55135;DHT22;41031;44.750;11.308;2022-12-29T02:07:45;10.80;98.90
55135;DHT22;41031;44.750;11.308;2022-12-29T02:10:13;10.80;98.90
55135;DHT22;41031;44.750;11.308;2022-12-29T02:12:40;10.80;98.90
55135;DHT22;41031;44.750;11.308;2022-12-29T02:15:08;10.80;98.90
55135;DHT22;41031;44.750;11.308;2022-12-29T02:20:49;10.70;98.90
55135;DHT22;41031;44.750;11.308;2022-12-29T02:27:04;10.70;98.90
55135;DHT22;41031;44.750;11.308;2022-12-29T02:32:35;10.70;99.00
55135;DHT22;41031;44.750;11.308;2022-12-29T02:46:23;10.70;99.00
55135;DHT22;41031;44.750;11.308;2022-12-29T02:51:44;10.70;99.00
55135;DHT22;41031;44.750;11.308;2022-12-29T02:54:16;10.70;98.90
55135;DHT22;41031;44.750;11.308;2022-12-29T02:57:01;10.70;98.90
55135;DHT22;41031;44.750;11.308;2022-12-29T02:59:29;10.70;99.00
55135;DHT22;41031;44.750;11.308;2022-12-29T03:02:08;10.70;99.00
55135;DHT22;41031;44.750;11.308;2022-12-29T03:07:30;10.70;99.00
55135;DHT22;41031;44.750;11.308;2022-12-29T03:13:34;10.70;99.00
55135;DHT22;41031;44.750;11.308;2022-12-29T03:16:35;10.70;99.10
55135;DHT22;41031;44.750;11.308;2022-12-29T03:19:32;10.70;99.10
55135;DHT22;41031;44.750;11.308;2022-12-29T03:22:04;10.60;99.00
55135;DHT22;41031;44.750;11.308;2022-12-29T03:25:15;10.70;99.10
55135;DHT22;41031;44.750;11.308;2022-12-29T03:28:05;10.70;99.10
55135;DHT22;41031;44.750;11.308;2022-12-29T03:30:40;10.70;99.10
55135;DHT22;41031;44.750;11.308;2022-12-29T03:33:13;10.70;99.10
55135;DHT22;41031;44.750;11.308;2022-12-29T03:35:44;10.70;99.10
55135;DHT22;41031;44.750;11.308;2022-12-29T03:40:52;10.70;99.10
55135;DHT22;41031;44.750;11.308;2022-12-29T03:43:24;10.70;99.00
55135;DHT22;41031;44.750;11.308;2022-12-29T03:45:52;10.70;99.00
55135;DHT22;41031;44.750;11.308;2022-12-29T03:48:19;10.70;99.00
55135;DHT22;41031;44.750;11.308;2022-12-29T03:50:48;10.70;99.10
55135;DHT22;41031;44.750;11.308;2022-12-29T03:53:16;10.70;99.10
55135;DHT22;41031;44.750;11.308;2022-12-29T03:55:44;10.70;99.10
55135;DHT22;41031;44.750;11.308;2022-12-29T03:58:12;10.70;99.10
55135;DHT22;41031;44.750;11.308;2022-12-29T04:00:53;10.70;99.10
55135;DHT22;41031;44.750;11.308;2022-12-29T04:03:20;10.70;99.10
55135;DHT22;41031;44.750;11.308;2022-12-29T04:05:47;10.70;99.10
55135;DHT22;41031;44.750;11.308;2022-12-29T04:08:14;10.70;99.10
55135;DHT22;41031;44.750;11.308;2022-12-29T04:10:42;10.70;99.10
55135;DHT22;41031;44.750;11.308;2022-12-29T04:13:09;10.70;99.10
55135;DHT22;41031;44.750;11.308;2022-12-29T04:15:36;10.70;99.10
55135;DHT22;41031;44.750;11.308;2022-12-29T04:18:03;10.70;99.00
55135;DHT22;41031;44.750;11.308;2022-12-29T04:20:32;10.70;99.00
55135;DHT22;41031;44.750;11.308;2022-12-29T04:23:17;10.70;98.90
55135;DHT22;41031;44.750;11.308;2022-12-29T04:25:45;10.70;98.90
55135;DHT22;41031;44.750;11.308;2022-12-29T04:28:15;10.60;99.00
55135;DHT22;41031;44.750;11.308;2022-12-29T04:30:47;10.60;99.00
55135;DHT22;41031;44.750;11.308;2022-12-29T04:33:21;10.60;99.10
55135;DHT22;41031;44.750;11.308;2022-12-29T04:35:49;10.60;99.10
55135;DHT22;41031;44.750;11.308;2022-12-29T04:38:16;10.60;99.20
55135;DHT22;41031;44.750;11.308;2022-12-29T04:40:45;10.60;99.20
55135;DHT22;41031;44.750;11.308;2022-12-29T04:43:14;10.60;99.20
55135;DHT22;41031;44.750;11.308;2022-12-29T04:46:00;10.70;99.30
55135;DHT22;41031;44.750;11.308;2022-12-29T04:48:34;10.70;99.30
55135;DHT22;41031;44.750;11.308;2022-12-29T04:51:10;10.70;99.30
55135;DHT22;41031;44.750;11.308;2022-12-29T04:53:38;10.70;99.30
55135;DHT22;41031;44.750;11.308;2022-12-29T04:56:07;10.70;99.30
55135;DHT22;41031;44.750;11.308;2022-12-29T04:58:35;10.70;99.30
55135;DHT22;41031;44.750;11.308;2022-12-29T05:01:02;10.70;99.30
55135;DHT22;41031;44.750;11.308;2022-12-29T05:03:30;10.70;99.30
55135;DHT22;41031;44.750;11.308;2022-12-29T05:05:57;10.70;99.30
55135;DHT22;41031;44.750;11.308;2022-12-29T05:08:24;10.70;99.30
55135;DHT22;41031;44.750;11.308;2022-12-29T05:10:57;10.70;99.30
55135;DHT22;41031;44.750;11.308;2022-12-29T05:13:25;10.70;99.30
55135;DHT22;41031;44.750;11.308;2022-12-29T05:15:53;10.70;99.30
55135;DHT22;41031;44.750;11.308;2022-12-29T05:18:22;10.70;99.20
55135;DHT22;41031;44.750;11.308;2022-12-29T05:20:49;10.70;99.10
55135;DHT22;41031;44.750;11.308;2022-12-29T05:23:19;10.70;99.40
55135;DHT22;41031;44.750;11.308;2022-12-29T05:25:52;10.70;99.10
55135;DHT22;41031;44.750;11.308;2022-12-29T05:28:37;10.70;99.20
55135;DHT22;41031;44.750;11.308;2022-12-29T05:31:10;10.70;99.20
55135;DHT22;41031;44.750;11.308;2022-12-29T05:33:38;10.70;99.20
55135;DHT22;41031;44.750;11.308;2022-12-29T05:36:06;10.70;99.20
55135;DHT22;41031;44.750;11.308;2022-12-29T05:38:36;10.70;99.20
55135;DHT22;41031;44.750;11.308;2022-12-29T05:41:04;10.70;99.30
55135;DHT22;41031;44.750;11.308;2022-12-29T05:43:53;10.70;99.30
55135;DHT22;41031;44.750;11.308;2022-12-29T05:46:38;10.70;99.30
55135;DHT22;41031;44.750;11.308;2022-12-29T05:49:17;10.70;99.30
55135;DHT22;41031;44.750;11.308;2022-12-29T05:51:54;10.70;99.30
55135;DHT22;41031;44.750;11.308;2022-12-29T05:54:21;10.70;99.30
55135;DHT22;41031;44.750;11.308;2022-12-29T05:56:49;10.70;99.30
55135;DHT22;41031;44.750;11.308;2022-12-29T05:59:16;10.70;99.30
55135;DHT22;41031;44.750;11.308;2022-12-29T06:01:44;10.70;99.20
55135;DHT22;41031;44.750;11.308;2022-12-29T06:04:11;10.70;99.20
55135;DHT22;41031;44.750;11.308;2022-12-29T06:06:38;10.70;99.00
55135;DHT22;41031;44.750;11.308;2022-12-29T06:09:12;10.70;99.00
55135;DHT22;41031;44.750;11.308;2022-12-29T06:11:39;10.70;99.00
55135;DHT22;41031;44.750;11.308;2022-12-29T06:14:07;10.70;99.10
55135;DHT22;41031;44.750;11.308;2022-12-29T06:16:34;10.60;99.10
55135;DHT22;41031;44.750;11.308;2022-12-29T06:19:04;10.60;99.20
55135;DHT22;41031;44.750;11.308;2022-12-29T06:21:31;10.60;99.20
55135;DHT22;41031;44.750;11.308;2022-12-29T06:24:00;10.60;99.30
55135;DHT22;41031;44.750;11.308;2022-12-29T06:26:27;10.60;99.20
55135;DHT22;41031;44.750;11.308;2022-12-29T06:28:55;10.60;99.10
55135;DHT22;41031;44.750;11.308;2022-12-29T06:31:22;10.60;99.10
55135;DHT22;41031;44.750;11.308;2022-12-29T06:33:50;10.60;99.20
55135;DHT22;41031;44.750;11.308;2022-12-29T06:36:17;10.50;99.20
55135;DHT22;41031;44.750;11.308;2022-12-29T06:38:44;10.50;99.30
55135;DHT22;41031;44.750;11.308;2022-12-29T06:41:12;10.50;99.30
55135;DHT22;41031;44.750;11.308;2022-12-29T06:43:59;10.50;99.30
55135;DHT22;41031;44.750;11.308;2022-12-29T06:46:44;10.50;99.40
55135;DHT22;41031;44.750;11.308;2022-12-29T06:49:11;10.40;99.40
55135;DHT22;41031;44.750;11.308;2022-12-29T06:51:38;10.40;99.50
55135;DHT22;41031;44.750;11.308;2022-12-29T06:54:05;10.40;99.50
55135;DHT22;41031;44.750;11.308;2022-12-29T06:56:32;10.40;99.60
55135;DHT22;41031;44.750;11.308;2022-12-29T06:58:59;10.40;99.60
55135;DHT22;41031;44.750;11.308;2022-12-29T07:01:30;10.40;99.60
55135;DHT22;41031;44.750;11.308;2022-12-29T07:03:57;10.40;99.70
55135;DHT22;41031;44.750;11.308;2022-12-29T07:06:24;10.50;99.80
55135;DHT22;41031;44.750;11.308;2022-12-29T07:08:51;10.50;99.80
55135;DHT22;41031;44.750;11.308;2022-12-29T07:11:21;10.50;99.70
55135;DHT22;41031;44.750;11.308;2022-12-29T07:13:49;10.50;99.70
55135;DHT22;41031;44.750;11.308;2022-12-29T07:16:16;10.50;99.50
55135;DHT22;41031;44.750;11.308;2022-12-29T07:18:43;10.50;99.50
55135;DHT22;41031;44.750;11.308;2022-12-29T07:21:10;10.50;99.50
55135;DHT22;41031;44.750;11.308;2022-12-29T07:23:38;10.40;99.40
55135;DHT22;41031;44.750;11.308;2022-12-29T07:26:07;10.40;99.50
55135;DHT22;41031;44.750;11.308;2022-12-29T07:28:35;10.40;99.60
55135;DHT22;41031;44.750;11.308;2022-12-29T07:31:02;10.40;99.60
55135;DHT22;41031;44.750;11.308;2022-12-29T07:33:30;10.40;99.70
55135;DHT22;41031;44.750;11.308;2022-12-29T07:35:58;10.40;99.70
55135;DHT22;41031;44.750;11.308;2022-12-29T07:38:25;10.40;99.80
55135;DHT22;41031;44.750;11.308;2022-12-29T07:40:56;10.50;99.80
55135;DHT22;41031;44.750;11.308;2022-12-29T07:43:24;10.50;99.80
55135;DHT22;41031;44.750;11.308;2022-12-29T07:46:11;10.60;99.70
55135;DHT22;41031;44.750;11.308;2022-12-29T07:48:58;10.60;99.60
55135;DHT22;41031;44.750;11.308;2022-12-29T07:51:25;10.60;99.60
55135;DHT22;41031;44.750;11.308;2022-12-29T07:53:52;10.60;99.70
55135;DHT22;41031;44.750;11.308;2022-12-29T07:56:19;10.60;99.70
55135;DHT22;41031;44.750;11.308;2022-12-29T07:58:46;10.60;99.60
55135;DHT22;41031;44.750;11.308;2022-12-29T08:01:13;10.60;99.60
55135;DHT22;41031;44.750;11.308;2022-12-29T08:03:40;10.60;99.50
55135;DHT22;41031;44.750;11.308;2022-12-29T08:06:11;10.70;99.50
55135;DHT22;41031;44.750;11.308;2022-12-29T08:08:38;10.60;99.50
55135;DHT22;41031;44.750;11.308;2022-12-29T08:11:05;10.70;99.50
55135;DHT22;41031;44.750;11.308;2022-12-29T08:13:32;10.70;99.50
55135;DHT22;41031;44.750;11.308;2022-12-29T08:15:59;10.70;99.50
55135;DHT22;41031;44.750;11.308;2022-12-29T08:18:26;10.70;99.50
55135;DHT22;41031;44.750;11.308;2022-12-29T08:20:53;10.70;99.40
55135;DHT22;41031;44.750;11.308;2022-12-29T08:23:21;10.70;99.40
55135;DHT22;41031;44.750;11.308;2022-12-29T08:25:57;10.70;99.40
55135;DHT22;41031;44.750;11.308;2022-12-29T08:28:24;10.80;99.40
55135;DHT22;41031;44.750;11.308;2022-12-29T08:30:52;10.80;99.40
55135;DHT22;41031;44.750;11.308;2022-12-29T08:33:19;10.80;99.40
55135;DHT22;41031;44.750;11.308;2022-12-29T08:35:46;10.80;99.40
55135;DHT22;41031;44.750;11.308;2022-12-29T08:38:16;10.80;99.30
55135;DHT22;41031;44.750;11.308;2022-12-29T08:40:43;10.80;99.20
55135;DHT22;41031;44.750;11.308;2022-12-29T08:43:10;10.80;99.20
55135;DHT22;41031;44.750;11.308;2022-12-29T08:45:42;10.80;99.20
55135;DHT22;41031;44.750;11.308;2022-12-29T08:48:09;10.90;99.20
55135;DHT22;41031;44.750;11.308;2022-12-29T08:50:36;10.90;99.20
55135;DHT22;41031;44.750;11.308;2022-12-29T08:53:03;10.90;99.10
55135;DHT22;41031;44.750;11.308;2022-12-29T08:55:30;10.90;99.10
55135;DHT22;41031;44.750;11.308;2022-12-29T08:57:57;10.90;99.20
55135;DHT22;41031;44.750;11.308;2022-12-29T09:00:24;10.90;99.10
55135;DHT22;41031;44.750;11.308;2022-12-29T09:02:52;11.00;99.00
55135;DHT22;41031;44.750;11.308;2022-12-29T09:05:19;11.00;99.00
55135;DHT22;41031;44.750;11.308;2022-12-29T09:07:46;11.00;99.00
55135;DHT22;41031;44.750;11.308;2022-12-29T09:10:13;11.00;98.90
55135;DHT22;41031;44.750;11.308;2022-12-29T09:12:40;11.00;98.80
55135;DHT22;41031;44.750;11.308;2022-12-29T09:15:08;11.00;98.80
55135;DHT22;41031;44.750;11.308;2022-12-29T09:17:35;11.00;98.80
55135;DHT22;41031;44.750;11.308;2022-12-29T09:20:12;10.90;98.80
55135;DHT22;41031;44.750;11.308;2022-12-29T09:22:40;10.90;98.80
55135;DHT22;41031;44.750;11.308;2022-12-29T09:25:07;10.90;98.80
55135;DHT22;41031;44.750;11.308;2022-12-29T09:27:36;10.90;98.80
55135;DHT22;41031;44.750;11.308;2022-12-29T09:30:05;10.90;98.80
55135;DHT22;41031;44.750;11.308;2022-12-29T09:32:34;10.90;98.90
55135;DHT22;41031;44.750;11.308;2022-12-29T09:35:09;10.90;99.00
55135;DHT22;41031;44.750;11.308;2022-12-29T09:37:36;11.00;99.00
55135;DHT22;41031;44.750;11.308;2022-12-29T09:40:05;11.00;99.00
55135;DHT22;41031;44.750;11.308;2022-12-29T09:42:40;11.00;98.90
55135;DHT22;41031;44.750;11.308;2022-12-29T09:45:14;11.00;98.90
55135;DHT22;41031;44.750;11.308;2022-12-29T09:47:43;11.00;98.80
55135;DHT22;41031;44.750;11.308;2022-12-29T09:53:15;11.00;98.60
55135;DHT22;41031;44.750;11.308;2022-12-29T09:55:53;11.00;98.70
55135;DHT22;41031;44.750;11.308;2022-12-29T10:01:14;11.00;98.80
55135;DHT22;41031;44.750;11.308;2022-12-29T10:03:52;11.00;98.80
55135;DHT22;41031;44.750;11.308;2022-12-29T10:06:40;11.10;98.90
55135;DHT22;41031;44.750;11.308;2022-12-29T10:09:40;11.10;98.80
55135;DHT22;41031;44.750;11.308;2022-12-29T10:15:02;11.10;98.80
55135;DHT22;41031;44.750;11.308;2022-12-29T10:20:33;11.10;98.70
55135;DHT22;41031;44.750;11.308;2022-12-29T10:23:39;11.10;98.60
55135;DHT22;41031;44.750;11.308;2022-12-29T10:26:13;11.10;98.70
55135;DHT22;41031;44.750;11.308;2022-12-29T10:28:56;11.00;98.70
55135;DHT22;41031;44.750;11.308;2022-12-29T10:31:29;11.10;98.80
55135;DHT22;41031;44.750;11.308;2022-12-29T10:34:02;11.10;98.80
55135;DHT22;41031;44.750;11.308;2022-12-29T10:36:41;11.10;98.90
55135;DHT22;41031;44.750;11.308;2022-12-29T10:39:26;11.10;99.00
55135;DHT22;41031;44.750;11.308;2022-12-29T10:42:11;11.10;99.00
55135;DHT22;41031;44.750;11.308;2022-12-29T10:44:40;11.20;99.10
55135;DHT22;41031;44.750;11.308;2022-12-29T10:47:21;11.20;99.10
55135;DHT22;41031;44.750;11.308;2022-12-29T10:49:50;11.30;99.10
55135;DHT22;41031;44.750;11.308;2022-12-29T10:52:19;11.30;99.00
55135;DHT22;41031;44.750;11.308;2022-12-29T10:55:00;11.40;99.00
55135;DHT22;41031;44.750;11.308;2022-12-29T10:57:33;11.50;99.10
55135;DHT22;41031;44.750;11.308;2022-12-29T11:00:12;11.60;99.00
55135;DHT22;41031;44.750;11.308;2022-12-29T11:02:49;11.70;99.00
55135;DHT22;41031;44.750;11.308;2022-12-29T11:08:10;11.90;98.50
55135;DHT22;41031;44.750;11.308;2022-12-29T11:10:42;11.90;98.20
55135;DHT22;41031;44.750;11.308;2022-12-29T11:13:18;12.00;98.30
55135;DHT22;41031;44.750;11.308;2022-12-29T11:15:48;12.10;98.30
55135;DHT22;41031;44.750;11.308;2022-12-29T11:18:20;12.10;98.30
55135;DHT22;41031;44.750;11.308;2022-12-29T11:20:49;12.20;98.30
55135;DHT22;41031;44.750;11.308;2022-12-29T11:26:15;12.40;98.20
55135;DHT22;41031;44.750;11.308;2022-12-29T11:28:45;12.50;98.10
55135;DHT22;41031;44.750;11.308;2022-12-29T11:31:17;12.60;98.00
55135;DHT22;41031;44.750;11.308;2022-12-29T11:33:44;12.70;97.90
55135;DHT22;41031;44.750;11.308;2022-12-29T11:36:21;12.80;97.80
55135;DHT22;41031;44.750;11.308;2022-12-29T11:38:53;12.90;97.60
55135;DHT22;41031;44.750;11.308;2022-12-29T11:41:29;12.90;97.20
55135;DHT22;41031;44.750;11.308;2022-12-29T11:43:59;13.00;96.80
55135;DHT22;41031;44.750;11.308;2022-12-29T11:46:33;13.00;96.50
55135;DHT22;41031;44.750;11.308;2022-12-29T11:49:01;13.00;95.70
55135;DHT22;41031;44.750;11.308;2022-12-29T11:51:42;13.00;95.30
55135;DHT22;41031;44.750;11.308;2022-12-29T11:54:19;12.90;95.00
55135;DHT22;41031;44.750;11.308;2022-12-29T11:56:48;12.90;95.00
55135;DHT22;41031;44.750;11.308;2022-12-29T12:02:00;12.90;95.10
55135;DHT22;41031;44.750;11.308;2022-12-29T12:04:34;12.80;95.10
55135;DHT22;41031;44.750;11.308;2022-12-29T12:07:15;12.80;95.10
55135;DHT22;41031;44.750;11.308;2022-12-29T12:12:41;12.70;95.20
55135;DHT22;41031;44.750;11.308;2022-12-29T12:15:20;12.70;95.20
55135;DHT22;41031;44.750;11.308;2022-12-29T12:20:58;12.70;95.40
55135;DHT22;41031;44.750;11.308;2022-12-29T12:26:22;12.70;95.60
55135;DHT22;41031;44.750;11.308;2022-12-29T12:29:12;12.70;95.60
55135;DHT22;41031;44.750;11.308;2022-12-29T12:31:59;12.70;95.70
55135;DHT22;41031;44.750;11.308;2022-12-29T12:34:38;12.70;95.60
55135;DHT22;41031;44.750;11.308;2022-12-29T12:40:31;12.60;95.50
55135;DHT22;41031;44.750;11.308;2022-12-29T12:46:33;12.50;95.70
55135;DHT22;41031;44.750;11.308;2022-12-29T13:00:17;12.30;95.90
55135;DHT22;41031;44.750;11.308;2022-12-29T13:03:26;12.30;95.90
55135;DHT22;41031;44.750;11.308;2022-12-29T13:06:10;12.30;96.00
55135;DHT22;41031;44.750;11.308;2022-12-29T13:25:36;12.20;96.00
55135;DHT22;41031;44.750;11.308;2022-12-29T13:28:13;12.10;95.90
55135;DHT22;41031;44.750;11.308;2022-12-29T13:31:01;12.10;95.90
55135;DHT22;41031;44.750;11.308;2022-12-29T13:36:35;12.00;95.90
55135;DHT22;41031;44.750;11.308;2022-12-29T13:39:18;12.00;96.00
55135;DHT22;41031;44.750;11.308;2022-12-29T13:41:55;12.00;96.10
55135;DHT22;41031;44.750;11.308;2022-12-29T13:44:46;11.90;96.20
55135;DHT22;41031;44.750;11.308;2022-12-29T13:47:22;11.90;96.30
55135;DHT22;41031;44.750;11.308;2022-12-29T13:49:52;11.80;96.30
55135;DHT22;41031;44.750;11.308;2022-12-29T13:52:47;11.80;96.40
55135;DHT22;41031;44.750;11.308;2022-12-29T13:58:00;11.80;96.60
55135;DHT22;41031;44.750;11.308;2022-12-29T14:00:44;11.70;96.70
55135;DHT22;41031;44.750;11.308;2022-12-29T14:08:52;11.70;96.90
55135;DHT22;41031;44.750;11.308;2022-12-29T14:11:22;11.60;96.90
55135;DHT22;41031;44.750;11.308;2022-12-29T14:13:51;11.60;97.00
55135;DHT22;41031;44.750;11.308;2022-12-29T14:16:33;11.60;97.10
55135;DHT22;41031;44.750;11.308;2022-12-29T14:19:11;11.60;97.20
55135;DHT22;41031;44.750;11.308;2022-12-29T14:21:39;11.60;97.30
55135;DHT22;41031;44.750;11.308;2022-12-29T14:29:50;11.70;97.40
55135;DHT22;41031;44.750;11.308;2022-12-29T14:35:00;11.70;97.40
55135;DHT22;41031;44.750;11.308;2022-12-29T14:37:47;11.70;97.40
55135;DHT22;41031;44.750;11.308;2022-12-29T14:40:24;11.70;97.40
55135;DHT22;41031;44.750;11.308;2022-12-29T14:42:56;11.70;97.40
55135;DHT22;41031;44.750;11.308;2022-12-29T14:45:28;11.70;97.30
55135;DHT22;41031;44.750;11.308;2022-12-29T14:47:56;11.70;97.60
55135;DHT22;41031;44.750;11.308;2022-12-29T14:55:41;11.80;97.40
55135;DHT22;41031;44.750;11.308;2022-12-29T14:58:32;11.80;97.40
55135;DHT22;41031;44.750;11.308;2022-12-29T15:01:25;11.80;97.30
55135;DHT22;41031;44.750;11.308;2022-12-29T15:03:57;11.80;97.40
55135;DHT22;41031;44.750;11.308;2022-12-29T15:06:29;11.80;97.40
55135;DHT22;41031;44.750;11.308;2022-12-29T15:14:23;11.70;97.30
55135;DHT22;41031;44.750;11.308;2022-12-29T15:16:50;11.70;97.60
55135;DHT22;41031;44.750;11.308;2022-12-29T15:19:25;11.70;97.30
55135;DHT22;41031;44.750;11.308;2022-12-29T15:21:55;11.70;97.30
55135;DHT22;41031;44.750;11.308;2022-12-29T15:24:23;11.70;97.30
55135;DHT22;41031;44.750;11.308;2022-12-29T15:26:52;11.70;97.60
55135;DHT22;41031;44.750;11.308;2022-12-29T15:29:36;11.70;97.20
55135;DHT22;41031;44.750;11.308;2022-12-29T15:32:19;11.60;97.20
55135;DHT22;41031;44.750;11.308;2022-12-29T15:34:49;11.70;97.30
55135;DHT22;41031;44.750;11.308;2022-12-29T15:37:23;11.60;97.30
55135;DHT22;41031;44.750;11.308;2022-12-29T15:39:51;11.60;97.40
55135;DHT22;41031;44.750;11.308;2022-12-29T15:44:54;11.60;97.50
55135;DHT22;41031;44.750;11.308;2022-12-29T15:47:35;11.60;97.50
55135;DHT22;41031;44.750;11.308;2022-12-29T15:50:15;11.50;97.50
55135;DHT22;41031;44.750;11.308;2022-12-29T15:52:44;11.50;97.60
55135;DHT22;41031;44.750;11.308;2022-12-29T15:55:30;11.50;97.60
55135;DHT22;41031;44.750;11.308;2022-12-29T15:58:00;11.50;97.70
55135;DHT22;41031;44.750;11.308;2022-12-29T16:00:28;11.50;97.70
55135;DHT22;41031;44.750;11.308;2022-12-29T16:02:59;11.50;97.70
55135;DHT22;41031;44.750;11.308;2022-12-29T16:05:38;11.50;97.70
55135;DHT22;41031;44.750;11.308;2022-12-29T16:08:29;11.50;97.70
55135;DHT22;41031;44.750;11.308;2022-12-29T16:11:01;11.50;97.80
55135;DHT22;41031;44.750;11.308;2022-12-29T16:13:35;11.50;97.80
55135;DHT22;41031;44.750;11.308;2022-12-29T16:16:22;11.50;97.80
55135;DHT22;41031;44.750;11.308;2022-12-29T16:18:52;11.50;97.90
55135;DHT22;41031;44.750;11.308;2022-12-29T16:21:31;11.50;97.90
55135;DHT22;41031;44.750;11.308;2022-12-29T16:24:06;11.50;97.90
55135;DHT22;41031;44.750;11.308;2022-12-29T16:26:36;11.50;97.90
55135;DHT22;41031;44.750;11.308;2022-12-29T16:29:06;11.50;97.90
55135;DHT22;41031;44.750;11.308;2022-12-29T16:34:28;11.50;98.00
55135;DHT22;41031;44.750;11.308;2022-12-29T16:36:58;11.50;98.00
55135;DHT22;41031;44.750;11.308;2022-12-29T16:39:26;11.50;98.00
55135;DHT22;41031;44.750;11.308;2022-12-29T16:41:55;11.50;98.00
55135;DHT22;41031;44.750;11.308;2022-12-29T16:44:24;11.50;98.00
55135;DHT22;41031;44.750;11.308;2022-12-29T16:49:39;11.50;98.10
55135;DHT22;41031;44.750;11.308;2022-12-29T16:52:21;11.50;98.10
55135;DHT22;41031;44.750;11.308;2022-12-29T16:54:59;11.50;98.20
55135;DHT22;41031;44.750;11.308;2022-12-29T16:57:35;11.50;98.10
55135;DHT22;41031;44.750;11.308;2022-12-29T17:00:06;11.50;98.10
55135;DHT22;41031;44.750;11.308;2022-12-29T17:02:35;11.50;98.10
55135;DHT22;41031;44.750;11.308;2022-12-29T17:05:16;11.50;98.10
55135;DHT22;41031;44.750;11.308;2022-12-29T17:07:43;11.50;98.10
55135;DHT22;41031;44.750;11.308;2022-12-29T17:10:11;11.50;98.20
55135;DHT22;41031;44.750;11.308;2022-12-29T17:12:40;11.50;98.20
55135;DHT22;41031;44.750;11.308;2022-12-29T17:15:15;11.40;98.10
55135;DHT22;41031;44.750;11.308;2022-12-29T17:17:46;11.50;98.20
55135;DHT22;41031;44.750;11.308;2022-12-29T17:20:15;11.50;98.30
55135;DHT22;41031;44.750;11.308;2022-12-29T17:22:43;11.40;98.30
55135;DHT22;41031;44.750;11.308;2022-12-29T17:25:19;11.40;98.30
55135;DHT22;41031;44.750;11.308;2022-12-29T17:27:53;11.40;98.30
55135;DHT22;41031;44.750;11.308;2022-12-29T17:30:23;11.40;98.30
55135;DHT22;41031;44.750;11.308;2022-12-29T17:33:02;11.40;98.30
55135;DHT22;41031;44.750;11.308;2022-12-29T17:35:30;11.40;98.30
55135;DHT22;41031;44.750;11.308;2022-12-29T17:37:57;11.40;98.50
55135;DHT22;41031;44.750;11.308;2022-12-29T17:40:26;11.40;98.30
55135;DHT22;41031;44.750;11.308;2022-12-29T17:42:56;11.40;98.20
55135;DHT22;41031;44.750;11.308;2022-12-29T17:45:32;11.40;98.30
55135;DHT22;41031;44.750;11.308;2022-12-29T17:48:00;11.30;98.30
55135;DHT22;41031;44.750;11.308;2022-12-29T17:50:29;11.30;98.40
55135;DHT22;41031;44.750;11.308;2022-12-29T17:53:01;11.30;98.50
55135;DHT22;41031;44.750;11.308;2022-12-29T17:55:29;11.30;98.50
55135;DHT22;41031;44.750;11.308;2022-12-29T17:58:24;11.30;98.60
55135;DHT22;41031;44.750;11.308;2022-12-29T18:00:55;11.30;98.60
55135;DHT22;41031;44.750;11.308;2022-12-29T18:03:25;11.30;98.60
55135;DHT22;41031;44.750;11.308;2022-12-29T18:05:54;11.30;98.60